createdAt,value
2022-10-09T00:01:52.184Z,4.88
2022-10-09T00:04:22.068Z,4.95
2022-10-09T00:06:54.513Z,4.55
2022-10-09T00:09:24.364Z,5.97
2022-10-09T00:11:54.191Z,5.50
2022-10-09T00:14:24.034Z,12.05
2022-10-09T00:16:53.927Z,3.25
2022-10-09T00:19:23.795Z,4.07
2022-10-09T00:21:56.211Z,4.20
2022-10-09T00:24:26.092Z,5.40
2022-10-09T00:26:55.893Z,3.28
2022-10-09T00:29:25.776Z,4.05
2022-10-09T00:31:55.593Z,4.75
2022-10-09T00:34:25.407Z,5.05
2022-10-09T00:36:57.808Z,4.50
2022-10-09T00:39:27.743Z,4.28
2022-10-09T00:41:57.627Z,3.78
2022-10-09T00:44:50.196Z,6.13
2022-10-09T00:47:23.103Z,3.78
2022-10-09T00:49:54.987Z,5.22
2022-10-09T00:52:28.857Z,11.15
2022-10-09T00:54:59.021Z,4.53
2022-10-09T00:57:29.044Z,6.45
2022-10-09T00:59:58.880Z,4.30
2022-10-09T01:02:29.001Z,4.00
2022-10-09T01:04:58.873Z,3.80
2022-10-09T01:07:38.475Z,4.47
2022-10-09T01:10:16.447Z,4.88
2022-10-09T01:12:53.146Z,3.53
2022-10-09T01:15:26.864Z,3.35
2022-10-09T01:18:02.826Z,6.72
2022-10-09T01:20:47.080Z,2.55
2022-10-09T01:23:52.333Z,4.90
2022-10-09T01:26:52.250Z,7.35
2022-10-09T01:29:26.171Z,3.50
2022-10-09T01:31:56.029Z,6.40
2022-10-09T01:34:27.217Z,3.40
2022-10-09T01:36:57.950Z,4.47
2022-10-09T01:39:28.780Z,3.05
2022-10-09T01:41:59.097Z,4.57
2022-10-09T01:44:33.013Z,2.97
2022-10-09T01:47:04.641Z,3.67
2022-10-09T01:49:42.327Z,2.38
2022-10-09T01:52:24.765Z,2.75
2022-10-09T01:55:11.469Z,2.75
2022-10-09T01:57:46.416Z,4.57
2022-10-09T02:00:19.163Z,3.00
2022-10-09T02:02:50.036Z,2.75
2022-10-09T02:05:23.986Z,3.53
2022-10-09T02:07:53.831Z,5.82
2022-10-09T02:10:24.549Z,1.23
2022-10-09T02:12:57.773Z,3.28
2022-10-09T02:15:34.045Z,4.15
2022-10-09T02:18:08.360Z,6.05
2022-10-09T02:20:40.325Z,2.00
2022-10-09T02:23:11.184Z,2.92
2022-10-09T02:25:41.098Z,5.05
2022-10-09T02:28:11.920Z,5.93
2022-10-09T02:30:50.752Z,6.40
2022-10-09T02:33:20.663Z,4.13
2022-10-09T02:35:50.506Z,3.03
2022-10-09T02:38:20.335Z,3.75
2022-10-09T02:40:50.364Z,4.13
2022-10-09T02:43:20.222Z,2.75
2022-10-09T02:45:52.661Z,4.93
2022-10-09T02:48:22.878Z,3.70
2022-10-09T02:50:52.698Z,4.25
2022-10-09T02:53:22.587Z,2.58
2022-10-09T02:55:52.400Z,4.82
2022-10-09T02:58:22.418Z,5.97
2022-10-09T03:00:55.972Z,4.15
2022-10-09T03:03:25.865Z,6.20
2022-10-09T03:06:03.241Z,6.13
2022-10-09T03:08:33.615Z,5.43
2022-10-09T03:11:03.438Z,3.83
2022-10-09T03:13:33.723Z,4.75
2022-10-09T03:16:10.929Z,4.55
2022-10-09T03:18:41.258Z,6.32
2022-10-09T03:21:12.408Z,3.80
2022-10-09T03:23:42.887Z,4.18
2022-10-09T03:26:14.384Z,3.45
2022-10-09T03:28:47.171Z,6.28
2022-10-09T03:31:50.464Z,2.97
2022-10-09T03:34:10.607Z,2.78
2022-10-09T03:36:40.714Z,3.30
2022-10-09T03:39:10.580Z,3.70
2022-10-09T03:41:40.428Z,2.65
2022-10-09T03:44:10.238Z,3.17
2022-10-09T03:46:42.883Z,5.82
2022-10-09T03:49:12.802Z,4.07
2022-10-09T03:51:42.661Z,7.10
2022-10-09T03:54:12.716Z,6.05
2022-10-09T03:56:42.546Z,5.45
2022-10-09T03:59:12.983Z,4.97
2022-10-09T04:01:45.545Z,9.15
2022-10-09T04:04:15.370Z,7.20
2022-10-09T04:06:45.206Z,7.32
2022-10-09T04:09:15.049Z,4.85
2022-10-09T04:11:44.884Z,3.25
2022-10-09T04:14:14.717Z,3.60
2022-10-09T04:16:47.218Z,4.53
2022-10-09T04:19:17.193Z,4.50
2022-10-09T04:21:47.052Z,7.78
2022-10-09T04:24:16.877Z,5.63
2022-10-09T04:26:47.430Z,5.75
2022-10-09T04:29:17.341Z,2.75
2022-10-09T04:31:49.863Z,3.92
2022-10-09T04:34:19.812Z,13.18
2022-10-09T04:36:49.767Z,4.43
2022-10-09T04:39:19.654Z,7.90
2022-10-09T04:41:49.462Z,6.35
2022-10-09T04:44:19.589Z,5.03
2022-10-09T04:46:53.101Z,3.63
2022-10-09T04:49:22.937Z,5.53
2022-10-09T04:51:52.847Z,5.47
2022-10-09T04:54:22.697Z,4.57
2022-10-09T04:56:52.522Z,8.35
2022-10-09T04:59:22.356Z,4.55
2022-10-09T05:01:54.819Z,5.13
2022-10-09T05:04:24.675Z,3.20
2022-10-09T05:06:54.518Z,4.13
2022-10-09T05:09:24.378Z,6.15
2022-10-09T05:11:54.182Z,6.80
2022-10-09T05:14:24.036Z,4.28
2022-10-09T05:17:12.900Z,5.30
2022-10-09T05:19:43.259Z,2.90
2022-10-09T05:22:13.085Z,3.78
2022-10-09T05:24:42.913Z,5.43
2022-10-09T05:27:12.755Z,3.33
2022-10-09T05:29:42.594Z,4.60
2022-10-09T05:32:15.036Z,3.95
2022-10-09T05:34:44.957Z,2.10
2022-10-09T05:37:14.793Z,3.20
2022-10-09T05:39:44.822Z,5.60
2022-10-09T05:42:14.700Z,5.65
2022-10-09T05:44:44.534Z,3.38
2022-10-09T05:47:18.089Z,7.90
2022-10-09T05:49:47.943Z,3.55
2022-10-09T05:52:17.783Z,3.00
2022-10-09T05:54:47.641Z,6.47
2022-10-09T05:57:17.467Z,3.47
2022-10-09T05:59:47.272Z,5.10
2022-10-09T06:02:19.731Z,4.85
2022-10-09T06:04:49.617Z,9.88
2022-10-09T06:07:19.464Z,10.68
2022-10-09T06:09:49.295Z,8.63
2022-10-09T06:12:19.092Z,5.32
2022-10-09T06:14:49.441Z,12.98
2022-10-09T06:17:21.871Z,10.90
2022-10-09T06:19:51.698Z,8.60
2022-10-09T06:22:21.504Z,7.35
2022-10-09T06:24:51.515Z,4.82
2022-10-09T06:27:21.346Z,11.07
2022-10-09T06:29:51.180Z,3.55
2022-10-09T06:32:23.776Z,7.43
2022-10-09T06:34:53.682Z,5.13
2022-10-09T06:37:23.511Z,4.35
2022-10-09T06:39:53.380Z,3.47
2022-10-09T06:42:23.387Z,5.20
2022-10-09T06:44:59.396Z,6.55
2022-10-09T06:47:31.867Z,4.70
2022-10-09T06:50:01.722Z,6.35
2022-10-09T06:52:31.568Z,4.40
2022-10-09T06:55:01.471Z,7.55
2022-10-09T06:57:31.341Z,4.97
2022-10-09T07:00:01.178Z,4.85
2022-10-09T07:02:34.982Z,6.93
2022-10-09T07:05:04.901Z,3.42
2022-10-09T07:07:34.744Z,8.10
2022-10-09T07:10:04.633Z,6.05
2022-10-09T07:12:34.462Z,4.40
2022-10-09T07:15:04.322Z,7.28
2022-10-09T07:17:36.776Z,10.07
2022-10-09T07:20:07.010Z,8.70
2022-10-09T07:22:36.901Z,4.80
2022-10-09T07:25:07.567Z,4.22
2022-10-09T07:27:38.001Z,5.72
2022-10-09T07:30:09.267Z,3.67
2022-10-09T07:32:41.722Z,3.90
2022-10-09T07:35:12.319Z,9.00
2022-10-09T07:37:42.190Z,3.53
2022-10-09T07:40:12.960Z,2.03
2022-10-09T07:42:42.855Z,3.55
2022-10-09T07:45:13.392Z,5.45
2022-10-09T07:47:45.845Z,7.35
2022-10-09T07:50:15.676Z,1.85
2022-10-09T07:52:45.517Z,3.45
2022-10-09T07:55:15.390Z,4.22
2022-10-09T07:57:45.194Z,3.67
2022-10-09T08:00:15.823Z,3.65
2022-10-09T08:02:48.551Z,5.60
2022-10-09T08:05:18.835Z,4.82
2022-10-09T08:07:48.666Z,6.75
2022-10-09T08:10:18.642Z,7.50
2022-10-09T08:12:48.692Z,7.30
2022-10-09T08:15:18.845Z,4.78
2022-10-09T08:17:51.273Z,3.28
2022-10-09T08:20:21.141Z,6.72
2022-10-09T08:22:51.460Z,3.88
2022-10-09T08:25:21.491Z,6.05
2022-10-09T08:27:51.322Z,5.32
2022-10-09T08:30:21.215Z,2.22
2022-10-09T08:32:53.684Z,3.13
2022-10-09T08:35:23.612Z,4.35
2022-10-09T08:37:53.447Z,5.68
2022-10-09T08:40:28.534Z,3.30
2022-10-09T08:43:03.122Z,2.80
2022-10-09T08:45:34.340Z,11.38
2022-10-09T08:48:11.013Z,4.45
2022-10-09T08:50:43.182Z,8.80
2022-10-09T08:53:21.195Z,5.43
2022-10-09T08:55:54.448Z,2.40
2022-10-09T08:58:24.987Z,3.53
2022-10-09T09:00:56.357Z,4.30
2022-10-09T09:03:42.683Z,7.18
2022-10-09T09:06:15.736Z,5.03
2022-10-09T09:08:50.758Z,5.53
2022-10-09T09:11:25.555Z,3.78
2022-10-09T09:14:04.386Z,4.45
2022-10-09T09:16:42.681Z,2.40
2022-10-09T09:19:46.963Z,4.17
2022-10-09T09:22:19.416Z,3.53
2022-10-09T09:24:51.697Z,4.30
2022-10-09T09:27:23.292Z,2.67
2022-10-09T09:29:57.981Z,5.53
2022-10-09T09:32:31.595Z,4.50
2022-10-09T09:35:11.066Z,6.07
2022-10-09T09:37:40.909Z,7.18
2022-10-09T09:40:36.096Z,3.83
2022-10-09T09:43:14.686Z,7.22
2022-10-09T09:45:44.753Z,5.80
2022-10-09T09:48:17.301Z,3.63
2022-10-09T09:51:10.214Z,3.38
2022-10-09T09:53:45.736Z,2.38
2022-10-09T09:56:15.568Z,22.67
2022-10-09T09:58:48.494Z,4.38
2022-10-09T10:01:26.510Z,2.33
2022-10-09T10:03:58.250Z,1.60
2022-10-09T10:06:32.734Z,3.55
2022-10-09T10:09:04.325Z,5.50
2022-10-09T10:11:35.835Z,1.40
2022-10-09T10:14:09.311Z,7.25
2022-10-09T10:16:41.088Z,10.82
2022-10-09T10:19:23.223Z,38.47
2022-10-09T10:22:00.586Z,45.00
2022-10-09T10:24:34.398Z,35.15
2022-10-09T10:27:08.621Z,42.95
2022-10-09T10:29:41.165Z,5.50
2022-10-09T10:32:16.291Z,3.60
2022-10-09T10:34:49.425Z,3.53
2022-10-09T10:37:31.289Z,4.18
2022-10-09T10:40:04.769Z,3.35
2022-10-09T10:42:45.304Z,1.35
2022-10-09T10:45:19.497Z,7.68
2022-10-09T10:47:52.755Z,2.53
2022-10-09T10:50:23.482Z,2.03
2022-10-09T10:53:05.237Z,9.48
2022-10-09T10:55:46.629Z,15.18
2022-10-09T10:58:26.955Z,2.92
2022-10-09T11:01:15.662Z,24.25
2022-10-09T11:04:05.063Z,2.80
2022-10-09T11:06:39.614Z,8.35
2022-10-09T11:09:18.522Z,5.22
2022-10-09T11:11:52.729Z,2.92
2022-10-09T11:14:32.294Z,8.73
2022-10-09T11:17:08.818Z,10.57
2022-10-09T11:20:00.006Z,4.15
2022-10-09T11:22:48.642Z,6.28
2022-10-09T11:25:32.866Z,3.40
2022-10-09T11:28:06.737Z,5.15
2022-10-09T11:30:41.188Z,3.72
2022-10-09T11:33:19.209Z,3.65
2022-10-09T11:35:51.697Z,3.42
2022-10-09T11:38:29.958Z,5.28
2022-10-09T11:41:06.577Z,5.72
2022-10-09T11:44:01.116Z,1.13
2022-10-09T11:46:42.404Z,4.72
2022-10-09T11:49:19.679Z,3.63
2022-10-09T11:51:55.175Z,2.53
2022-10-09T11:54:26.073Z,4.03
2022-10-09T11:57:00.397Z,4.18
2022-10-09T11:59:33.680Z,3.50
2022-10-09T12:02:15.748Z,1.33
2022-10-09T12:04:54.829Z,1.27
2022-10-09T12:07:34.274Z,3.45
2022-10-09T12:10:07.645Z,1.52
2022-10-09T12:12:40.508Z,1.95
2022-10-09T12:15:15.462Z,8.10
2022-10-09T12:17:50.544Z,13.82
2022-10-09T12:20:22.241Z,7.03
2022-10-09T12:23:21.789Z,6.55
2022-10-09T12:25:48.039Z,2.30
2022-10-09T12:28:30.257Z,2.25
2022-10-09T12:31:01.167Z,1.55
2022-10-09T12:33:34.101Z,1.65
2022-10-09T12:36:08.960Z,5.20
2022-10-09T12:38:39.279Z,8.05
2022-10-09T12:41:11.476Z,8.32
2022-10-09T12:43:46.819Z,4.90
2022-10-09T12:46:16.796Z,5.38
2022-10-09T12:48:46.857Z,6.07
2022-10-09T12:51:21.964Z,2.35
2022-10-09T12:53:53.539Z,1.45
2022-10-09T12:56:27.676Z,0.77
2022-10-09T12:59:00.754Z,1.00
2022-10-09T13:01:31.121Z,3.35
2022-10-09T13:04:03.621Z,1.15
2022-10-09T13:06:38.330Z,4.82
2022-10-09T13:09:09.915Z,3.47
2022-10-09T13:11:41.939Z,1.90
2022-10-09T13:14:31.299Z,2.53
2022-10-09T13:17:01.355Z,3.28
2022-10-09T13:19:32.666Z,2.40
2022-10-09T13:22:04.501Z,2.88
2022-10-09T13:24:35.856Z,4.15
2022-10-09T13:27:06.669Z,2.10
2022-10-09T13:29:39.135Z,2.22
2022-10-09T13:32:10.816Z,2.22
2022-10-09T13:34:40.636Z,1.83
2022-10-09T13:37:10.807Z,1.70
2022-10-09T13:39:40.631Z,2.65
2022-10-09T13:42:10.940Z,2.65
2022-10-09T13:44:43.479Z,2.72
2022-10-09T13:47:14.394Z,0.93
2022-10-09T13:49:44.249Z,1.10
2022-10-09T13:52:14.175Z,2.05
2022-10-09T13:54:44.369Z,4.13
2022-10-09T13:57:14.242Z,2.65
2022-10-09T13:59:46.711Z,3.03
2022-10-09T14:02:16.799Z,7.57
2022-10-09T14:04:46.636Z,4.07
2022-10-09T14:07:16.475Z,5.22
2022-10-09T14:09:46.330Z,2.30
2022-10-09T14:12:16.164Z,3.20
2022-10-09T14:14:48.591Z,3.10
2022-10-09T14:17:18.415Z,2.67
2022-10-09T14:19:48.494Z,2.20
2022-10-09T14:22:18.417Z,2.67
2022-10-09T14:24:48.227Z,5.00
2022-10-09T14:27:18.104Z,6.93
2022-10-09T14:29:53.064Z,6.72
2022-10-09T14:32:25.210Z,10.77
2022-10-09T14:34:55.128Z,4.93
2022-10-09T14:37:40.343Z,2.58
2022-10-09T14:40:12.620Z,3.42
2022-10-09T14:42:42.942Z,3.42
2022-10-09T14:45:15.705Z,3.08
2022-10-09T14:47:45.599Z,4.03
2022-10-09T14:50:15.446Z,2.40
2022-10-09T14:52:45.285Z,3.30
2022-10-09T14:55:15.117Z,2.60
2022-10-09T14:57:44.939Z,1.63
2022-10-09T15:00:18.532Z,3.67
2022-10-09T15:02:48.349Z,6.93
2022-10-09T15:05:18.340Z,7.57
2022-10-09T15:07:48.455Z,1.95
2022-10-09T15:10:18.659Z,2.72
2022-10-09T15:12:48.484Z,3.70
2022-10-09T15:15:20.964Z,6.05
2022-10-09T15:17:51.034Z,1.52
2022-10-09T15:20:21.112Z,2.92
2022-10-09T15:22:50.984Z,1.13
2022-10-09T15:25:20.825Z,1.92
2022-10-09T15:27:54.547Z,2.58
2022-10-09T15:30:27.427Z,2.60
2022-10-09T15:32:57.315Z,4.45
2022-10-09T15:35:27.134Z,2.35
2022-10-09T15:37:57.039Z,10.45
2022-10-09T15:40:28.312Z,19.45
2022-10-09T15:42:58.229Z,15.00
2022-10-09T15:45:30.737Z,5.50
2022-10-09T15:48:00.601Z,7.50
2022-10-09T15:50:30.402Z,15.45
2022-10-09T15:53:00.252Z,10.93
2022-10-09T15:55:30.072Z,8.23
2022-10-09T15:57:59.884Z,10.85
2022-10-09T16:00:32.346Z,7.75
2022-10-09T16:03:02.175Z,8.15
2022-10-09T16:05:32.050Z,8.48
2022-10-09T16:08:01.922Z,10.43
2022-10-09T16:10:31.938Z,9.95
2022-10-09T16:13:01.818Z,78.88
2022-10-09T16:15:34.256Z,76.70
2022-10-09T16:18:04.069Z,92.88
2022-10-09T16:20:36.530Z,73.75
2022-10-09T16:23:07.282Z,44.13
2022-10-09T16:25:37.750Z,46.45
2022-10-09T16:28:08.666Z,46.08
2022-10-09T16:30:44.080Z,47.00
2022-10-09T16:33:14.361Z,52.38
2022-10-09T16:35:44.234Z,44.53
2022-10-09T16:38:14.100Z,70.20
2022-10-09T16:41:02.705Z,82.40
2022-10-09T16:43:35.781Z,74.00
2022-10-09T16:46:21.197Z,76.20
2022-10-09T16:48:51.752Z,94.00
2022-10-09T16:51:23.048Z,79.18
2022-10-09T16:53:53.972Z,93.30
2022-10-09T16:56:26.062Z,68.82
2022-10-09T16:58:57.795Z,46.92
2022-10-09T17:01:31.326Z,42.60
2022-10-09T17:04:02.364Z,35.53
2022-10-09T17:06:32.226Z,37.92
2022-10-09T17:09:02.490Z,51.25
2022-10-09T17:11:33.410Z,52.55
2022-10-09T17:14:03.311Z,53.15
2022-10-09T17:16:37.747Z,57.42
2022-10-09T17:19:07.670Z,52.47
2022-10-09T17:21:37.811Z,52.95
2022-10-09T17:24:09.239Z,38.10
2022-10-09T17:26:39.089Z,14.50
2022-10-09T17:29:08.980Z,17.55
2022-10-09T17:31:41.486Z,30.10
2022-10-09T17:34:11.572Z,26.35
2022-10-09T17:36:43.730Z,21.67
2022-10-09T17:39:16.105Z,16.77
2022-10-09T17:41:48.390Z,19.90
2022-10-09T17:44:19.884Z,78.43
2022-10-09T17:46:52.402Z,108.57
2022-10-09T17:49:22.376Z,42.80
2022-10-09T17:51:52.818Z,35.88
2022-10-09T17:54:22.653Z,37.50
2022-10-09T17:56:52.495Z,35.90
2022-10-09T17:59:22.323Z,37.97
2022-10-09T18:01:54.776Z,32.33
2022-10-09T18:04:27.330Z,26.67
2022-10-09T18:06:57.514Z,33.33
2022-10-09T18:09:27.360Z,27.60
2022-10-09T18:11:57.234Z,28.75
2022-10-09T18:14:27.308Z,32.40
2022-10-09T18:16:59.959Z,34.40
2022-10-09T18:19:29.860Z,34.47
2022-10-09T18:22:00.255Z,36.28
2022-10-09T18:24:30.160Z,46.72
2022-10-09T18:27:00.376Z,35.53
2022-10-09T18:29:33.540Z,36.03
2022-10-09T18:32:06.301Z,41.95
2022-10-09T18:34:39.210Z,43.53
2022-10-09T18:37:09.887Z,37.40
2022-10-09T18:39:40.083Z,45.20
2022-10-09T18:42:10.563Z,112.75
2022-10-09T18:44:40.407Z,86.97
2022-10-09T18:47:17.067Z,61.83
2022-10-09T18:49:49.019Z,59.40
2022-10-09T18:52:19.539Z,49.35
2022-10-09T18:54:53.107Z,45.60
2022-10-09T18:57:23.369Z,34.45
2022-10-09T18:59:54.460Z,35.97
2022-10-09T19:02:27.252Z,26.30
2022-10-09T19:04:57.982Z,44.20
2022-10-09T19:07:27.873Z,42.60
2022-10-09T19:09:58.102Z,26.98
2022-10-09T19:12:28.272Z,35.17
2022-10-09T19:14:58.107Z,39.85
2022-10-09T19:17:30.648Z,48.20
2022-10-09T19:20:00.494Z,114.22
2022-10-09T19:22:30.347Z,75.38
2022-10-09T19:25:00.362Z,100.55
2022-10-09T19:27:30.256Z,87.55
2022-10-09T19:30:00.110Z,55.60
2022-10-09T19:32:32.587Z,40.03
2022-10-09T19:35:02.424Z,31.17
2022-10-09T19:37:32.263Z,53.53
2022-10-09T19:40:02.146Z,39.00
2022-10-09T19:42:32.026Z,36.15
2022-10-09T19:45:01.948Z,30.40
2022-10-09T19:47:34.417Z,30.05
2022-10-09T19:50:04.228Z,18.33
2022-10-09T19:52:34.092Z,20.02
2022-10-09T19:55:03.957Z,45.17
2022-10-09T19:57:33.834Z,43.13
2022-10-09T20:00:03.780Z,50.50
2022-10-09T20:02:37.065Z,39.15
2022-10-09T20:05:07.966Z,27.25
2022-10-09T20:07:37.873Z,34.30
2022-10-09T20:10:08.609Z,27.35
2022-10-09T20:12:38.537Z,21.95
2022-10-09T20:15:09.843Z,18.38
2022-10-09T20:17:42.263Z,17.65
2022-10-09T20:20:13.101Z,32.45
2022-10-09T20:22:42.986Z,38.75
2022-10-09T20:25:12.926Z,33.58
2022-10-09T20:27:42.779Z,28.17
2022-10-09T20:30:14.071Z,33.72
2022-10-09T20:32:49.177Z,34.00
2022-10-09T20:35:19.464Z,27.38
2022-10-09T20:37:49.322Z,28.02
2022-10-09T20:40:20.464Z,28.08
2022-10-09T20:42:50.463Z,21.95
2022-10-09T20:45:20.823Z,15.30
2022-10-09T20:47:53.272Z,20.65
2022-10-09T20:50:23.157Z,16.70
2022-10-09T20:52:53.145Z,17.55
2022-10-09T20:55:23.145Z,18.52
2022-10-09T20:57:54.940Z,18.42
2022-10-09T21:00:25.036Z,18.13
2022-10-09T21:02:57.589Z,16.23
2022-10-09T21:05:27.546Z,20.23
2022-10-09T21:07:57.394Z,31.38
2022-10-09T21:10:27.281Z,62.38
2022-10-09T21:12:57.116Z,46.55
2022-10-09T21:15:27.744Z,38.58
2022-10-09T21:18:00.707Z,45.78
2022-10-09T21:20:30.547Z,38.70
2022-10-09T21:23:00.395Z,38.80
2022-10-09T21:25:30.275Z,43.63
2022-10-09T21:28:00.224Z,42.25
2022-10-09T21:30:30.348Z,46.08
2022-10-09T21:33:02.817Z,34.72
2022-10-09T21:35:32.685Z,36.45
2022-10-09T21:38:02.503Z,37.50
2022-10-09T21:40:32.391Z,37.40
2022-10-09T21:43:02.213Z,40.92
2022-10-09T21:45:32.054Z,37.47
2022-10-09T21:48:04.565Z,33.55
2022-10-09T21:50:36.447Z,28.10
2022-10-09T21:53:07.090Z,33.75
2022-10-09T21:55:37.114Z,33.85
2022-10-09T21:58:06.963Z,29.25
2022-10-09T22:00:37.465Z,35.92
2022-10-09T22:03:09.897Z,32.83
2022-10-09T22:05:42.152Z,29.40
2022-10-09T22:08:12.050Z,25.05
2022-10-09T22:10:44.237Z,34.38
2022-10-09T22:13:14.119Z,24.95
2022-10-09T22:15:47.655Z,23.35
2022-10-09T22:18:23.000Z,15.98
2022-10-09T22:20:53.596Z,14.88
2022-10-09T22:23:24.227Z,22.42
2022-10-09T22:26:00.931Z,22.25
2022-10-09T22:28:30.895Z,18.77
2022-10-09T22:31:05.215Z,39.55
2022-10-09T22:33:38.176Z,29.88
2022-10-09T22:36:10.185Z,27.83
2022-10-09T22:38:40.653Z,32.03
2022-10-09T22:41:12.666Z,26.75
2022-10-09T22:43:43.441Z,30.10
2022-10-09T22:46:15.458Z,23.23
2022-10-09T22:48:48.250Z,24.10
2022-10-09T22:51:19.907Z,28.33
2022-10-09T22:53:50.018Z,23.33
2022-10-09T22:56:21.671Z,20.95
2022-10-09T22:58:53.142Z,26.13
2022-10-09T23:01:30.083Z,19.83
2022-10-09T23:04:04.135Z,22.48
2022-10-09T23:06:34.011Z,28.35
2022-10-09T23:09:04.166Z,21.77
2022-10-09T23:11:34.081Z,17.67
2022-10-09T23:14:04.739Z,19.42
2022-10-09T23:16:35.187Z,21.88
2022-10-09T23:19:07.996Z,22.45
2022-10-09T23:21:38.432Z,20.33
2022-10-09T23:24:08.818Z,26.80
2022-10-09T23:26:39.447Z,18.00
2022-10-09T23:29:11.245Z,22.63
2022-10-09T23:31:41.423Z,19.15
2022-10-09T23:34:13.928Z,14.15
2022-10-09T23:36:43.770Z,14.18
2022-10-09T23:39:13.593Z,10.20
2022-10-09T23:41:43.618Z,13.02
2022-10-09T23:44:13.445Z,11.48
2022-10-09T23:46:43.375Z,15.73
2022-10-09T23:49:15.839Z,10.35
2022-10-09T23:51:45.668Z,11.10
2022-10-09T23:54:15.510Z,15.05
2022-10-09T23:56:45.627Z,13.93
2022-10-09T23:59:15.430Z,8.82
